Time,TemperatureF,DewpointF,PressureIn,WindDirection,WindDirectionDegrees,WindSpeedMPH,WindSpeedGustMPH,Humidity,HourlyPrecipIn,Conditions,Clouds,dailyrainin,SoftwareType,DateUTC
2013-06-10 00:02:00,60.0,38.0,-100.00,South,169,4.0,13.0,44,-99.99,,,-99.99,,2013-06-10 06:02:00,
2013-06-10 00:12:00,63.0,37.0,-100.00,SE,130,2.0,5.0,36,-99.99,,,-99.99,,2013-06-10 06:12:00,
2013-06-10 00:22:00,63.0,37.0,-100.00,SE,130,2.0,5.0,36,-99.99,,,-99.99,,2013-06-10 06:22:00,
2013-06-10 00:32:00,62.0,36.0,-100.00,ESE,118,7.0,9.0,37,-99.99,,,-99.99,,2013-06-10 06:32:00,
2013-06-10 00:42:00,62.0,38.0,-100.00,ESE,123,9.0,10.0,40,-99.99,,,-99.99,,2013-06-10 06:42:00,
2013-06-10 00:52:00,62.0,38.0,-100.00,ESE,123,9.0,10.0,40,-99.99,,,-99.99,,2013-06-10 06:52:00,
2013-06-10 01:02:00,65.0,36.0,-100.00,SE,139,5.0,8.0,33,-99.99,,,-99.99,,2013-06-10 07:02:00,
2013-06-10 01:12:00,65.0,36.0,-100.00,SE,139,5.0,8.0,33,-99.99,,,-99.99,,2013-06-10 07:12:00,
2013-06-10 01:32:00,63.0,39.0,-100.00,North,8,3.0,5.0,41,-99.99,,,-99.99,,2013-06-10 07:32:00,
2013-06-10 01:42:00,64.0,35.0,-100.00,ESE,117,4.0,6.0,34,-99.99,,,-99.99,,2013-06-10 07:42:00,
2013-06-10 01:52:00,64.0,35.0,-100.00,ESE,117,4.0,6.0,34,-99.99,,,-99.99,,2013-06-10 07:52:00,
2013-06-10 02:02:00,59.0,38.0,-100.00,NE,46,5.0,6.0,45,-99.99,,,-99.99,,2013-06-10 08:02:00,
2013-06-10 02:12:00,59.0,37.0,-100.00,NNE,19,6.0,6.0,43,-99.99,,,-99.99,,2013-06-10 08:12:00,
2013-06-10 02:21:00,59.0,37.0,-100.00,NNE,19,6.0,6.0,43,-99.99,,,-99.99,,2013-06-10 08:21:00,
2013-06-10 02:32:00,59.0,35.0,-100.00,ENE,75,6.0,7.0,41,-99.99,,,-99.99,,2013-06-10 08:32:00,
2013-06-10 02:42:00,59.0,35.0,-100.00,ENE,61,3.0,7.0,41,-99.99,,,-99.99,,2013-06-10 08:42:00,
2013-06-10 02:52:00,59.0,35.0,-100.00,ENE,61,3.0,7.0,41,-99.99,,,-99.99,,2013-06-10 08:52:00,
2013-06-10 03:02:00,61.0,34.0,-100.00,ESE,123,3.0,4.0,35,-99.99,,,-99.99,,2013-06-10 09:02:00,
2013-06-10 03:12:00,59.0,38.0,-100.00,North,351,2.0,3.0,46,-99.99,,,-99.99,,2013-06-10 09:12:00,
2013-06-10 03:21:00,58.0,36.0,-100.00,East,88,3.0,4.0,44,-99.99,,,-99.99,,2013-06-10 09:21:00,
2013-06-10 03:32:00,56.0,37.0,-100.00,NNW,334,4.0,4.0,48,-99.99,,,-99.99,,2013-06-10 09:32:00,
2013-06-10 03:42:00,57.0,36.0,-100.00,NE,34,3.0,4.0,46,-99.99,,,-99.99,,2013-06-10 09:42:00,
2013-06-10 03:53:00,58.0,37.0,-100.00,NE,39,4.0,4.0,45,-99.99,,,-99.99,,2013-06-10 09:53:00,
2013-06-10 04:02:00,58.0,34.0,-100.00,ENE,74,6.0,7.0,40,-99.99,,,-99.99,,2013-06-10 10:02:00,
2013-06-10 04:12:00,59.0,33.0,-100.00,North,6,2.0,8.0,36,-99.99,,,-99.99,,2013-06-10 10:12:00,
2013-06-10 04:22:00,59.0,33.0,-100.00,ENE,66,1.0,4.0,37,-99.99,,,-99.99,,2013-06-10 10:22:00,
2013-06-10 04:33:00,60.0,34.0,-100.00,NE,46,4.0,5.0,38,-99.99,,,-99.99,,2013-06-10 10:33:00,
2013-06-10 04:42:00,59.0,34.0,-100.00,East,90,10.0,11.0,38,-99.99,,,-99.99,,2013-06-10 10:42:00,
2013-06-10 04:52:00,59.0,33.0,-100.00,East,80,9.0,11.0,36,-99.99,,,-99.99,,2013-06-10 10:52:00,
2013-06-10 05:02:00,61.0,32.0,-100.00,East,80,9.0,10.0,33,-99.99,,,-99.99,,2013-06-10 11:02:00,
2013-06-10 05:12:00,60.0,33.0,-100.00,ENE,63,8.0,9.0,35,-99.99,,,-99.99,,2013-06-10 11:12:00,
2013-06-10 05:22:00,59.0,33.0,-100.00,SE,130,3.0,10.0,36,-99.99,,,-99.99,,2013-06-10 11:22:00,
2013-06-10 05:32:00,57.0,35.0,-100.00,South,183,2.0,4.0,42,-99.99,,,-99.99,,2013-06-10 11:32:00,
2013-06-10 05:42:00,56.0,35.0,-100.00,SW,215,2.0,4.0,44,-99.99,,,-99.99,,2013-06-10 11:42:00,
2013-06-10 05:52:00,56.0,35.0,-100.00,North,11,1.0,2.0,44,-99.99,,,-99.99,,2013-06-10 11:52:00,
2013-06-10 06:02:00,54.0,36.0,-100.00,West,262,2.0,3.0,51,-99.99,,,-99.99,,2013-06-10 12:02:00,
2013-06-10 06:12:00,54.0,36.0,-100.00,South,171,1.0,3.0,50,-99.99,,,-99.99,,2013-06-10 12:12:00,
2013-06-10 06:22:00,55.0,36.0,-100.00,NE,54,1.0,4.0,47,-99.99,,,-99.99,,2013-06-10 12:22:00,
2013-06-10 06:32:00,56.0,35.0,-100.00,East,80,5.0,5.0,45,-99.99,,,-99.99,,2013-06-10 12:32:00,
2013-06-10 06:42:00,60.0,33.0,-100.00,East,100,6.0,10.0,36,-99.99,,,-99.99,,2013-06-10 12:42:00,
2013-06-10 06:52:00,59.0,33.0,-100.00,SE,134,4.0,6.0,37,-99.99,,,-99.99,,2013-06-10 12:52:00,
2013-06-10 07:02:00,59.0,37.0,-100.00,SSE,151,1.0,5.0,42,-99.99,,,-99.99,,2013-06-10 13:02:00,
2013-06-10 07:11:00,52.0,38.0,-100.00,WSW,253,5.0,5.0,58,-99.99,,,-99.99,,2013-06-10 13:11:00,
2013-06-10 07:22:00,51.0,39.0,-100.00,West,271,3.0,7.0,61,-99.99,,,-99.99,,2013-06-10 13:22:00,
2013-06-10 07:32:00,55.0,38.0,-100.00,NNW,339,2.0,5.0,52,-99.99,,,-99.99,,2013-06-10 13:32:00,
2013-06-10 07:42:00,58.0,37.0,-100.00,East,81,0.0,3.0,45,-99.99,,,-99.99,,2013-06-10 13:42:00,
2013-06-10 07:52:00,60.0,36.0,-100.00,South,188,1.0,2.0,40,-99.99,,,-99.99,,2013-06-10 13:52:00,
2013-06-10 08:02:00,60.0,42.0,-100.00,West,267,2.0,3.0,52,-99.99,,,-99.99,,2013-06-10 14:02:00,
2013-06-10 08:12:00,61.0,42.0,-100.00,SSW,194,1.0,3.0,48,-99.99,,,-99.99,,2013-06-10 14:12:00,
2013-06-10 08:22:00,61.0,42.0,-100.00,SSW,194,1.0,3.0,48,-99.99,,,-99.99,,2013-06-10 14:22:00,
2013-06-10 08:32:00,60.0,41.0,-100.00,NW,319,3.0,4.0,48,-99.99,,,-99.99,,2013-06-10 14:32:00,
2013-06-10 08:42:00,63.0,37.0,-100.00,NNW,340,3.0,4.0,38,-99.99,,,-99.99,,2013-06-10 14:42:00,
2013-06-10 08:52:00,65.0,36.0,-100.00,West,281,0.0,3.0,34,-99.99,,,-99.99,,2013-06-10 14:52:00,
2013-06-10 09:02:00,67.0,38.0,-100.00,West,277,0.0,2.0,34,-99.99,,,-99.99,,2013-06-10 15:02:00,
2013-06-10 09:12:00,67.0,38.0,-100.00,West,268,2.0,2.0,34,-99.99,,,-99.99,,2013-06-10 15:12:00,
2013-06-10 09:21:00,67.0,38.0,-100.00,West,268,2.0,2.0,34,-99.99,,,-99.99,,2013-06-10 15:21:00,
2013-06-10 09:32:00,70.0,35.0,-100.00,NW,312,2.0,4.0,27,-99.99,,,-99.99,,2013-06-10 15:32:00,
2013-06-10 09:43:00,71.0,35.0,-100.00,North,11,3.0,4.0,27,-99.99,,,-99.99,,2013-06-10 15:43:00,
2013-06-10 09:53:00,71.0,35.0,-100.00,North,11,3.0,4.0,27,-99.99,,,-99.99,,2013-06-10 15:53:00,
2013-06-10 10:03:00,72.0,37.0,-100.00,WSW,252,3.0,5.0,27,-99.99,,,-99.99,,2013-06-10 16:03:00,
2013-06-10 10:12:00,74.0,37.0,-100.00,WSW,256,1.0,5.0,25,-99.99,,,-99.99,,2013-06-10 16:12:00,
2013-06-10 10:22:00,74.0,37.0,-100.00,WSW,256,1.0,5.0,25,-99.99,,,-99.99,,2013-06-10 16:22:00,
2013-06-10 10:33:00,77.0,36.0,-100.00,NNE,22,2.0,3.0,22,-99.99,,,-99.99,,2013-06-10 16:33:00,
2013-06-10 10:42:00,77.0,38.0,-100.00,North,354,3.0,5.0,24,-99.99,,,-99.99,,2013-06-10 16:42:00,
2013-06-10 10:52:00,77.0,38.0,-100.00,North,354,3.0,5.0,24,-99.99,,,-99.99,,2013-06-10 16:52:00,
2013-06-10 11:03:00,77.0,36.0,-100.00,NW,326,5.0,7.0,22,-99.99,,,-99.99,,2013-06-10 17:03:00,
2013-06-10 11:14:00,77.0,38.0,-100.00,NW,306,6.0,7.0,24,-99.99,,,-99.99,,2013-06-10 17:14:00,
2013-06-10 11:26:00,77.0,38.0,-100.00,NW,306,6.0,7.0,24,-99.99,,,-99.99,,2013-06-10 17:26:00,
2013-06-10 11:38:00,80.0,33.0,-100.00,West,275,3.0,7.0,18,-99.99,,,-99.99,,2013-06-10 17:38:00,
2013-06-10 11:48:00,82.0,28.0,-100.00,SSW,192,3.0,6.0,13,-99.99,,,-99.99,,2013-06-10 17:48:00,
2013-06-10 11:57:00,82.0,28.0,-100.00,SSW,192,3.0,6.0,13,-99.99,,,-99.99,,2013-06-10 17:57:00,
2013-06-10 12:07:00,81.0,24.0,-100.00,SSE,168,11.0,17.0,12,-99.99,,,-99.99,,2013-06-10 18:07:00,
2013-06-10 12:14:00,82.0,25.0,-100.00,South,171,17.0,26.0,12,-99.99,,,-99.99,,2013-06-10 18:14:00,
2013-06-10 12:24:00,81.0,23.0,-100.00,SSE,150,23.0,34.0,11,-99.99,,,-99.99,,2013-06-10 18:24:00,
2013-06-10 12:34:00,82.0,24.0,-100.00,SSE,149,19.0,26.0,11,-99.99,,,-99.99,,2013-06-10 18:34:00,
2013-06-10 12:48:00,83.0,23.0,-100.00,SSE,164,16.0,25.0,11,-99.99,,,-99.99,,2013-06-10 18:48:00,
2013-06-10 12:55:00,84.0,24.0,-100.00,South,190,11.0,20.0,10,-99.99,,,-99.99,,2013-06-10 18:55:00,
2013-06-10 13:02:00,83.0,22.0,-100.00,SW,233,15.0,20.0,10,-99.99,,,-99.99,,2013-06-10 19:02:00,
2013-06-10 13:12:00,83.0,21.0,-100.00,WSW,253,23.0,27.0,9,-99.99,,,-99.99,,2013-06-10 19:12:00,
2013-06-10 13:22:00,84.0,19.0,-100.00,WSW,250,17.0,24.0,9,-99.99,,,-99.99,,2013-06-10 19:22:00,
2013-06-10 13:32:00,84.0,19.0,-100.00,WSW,250,17.0,24.0,9,-99.99,,,-99.99,,2013-06-10 19:32:00,
2013-06-10 13:42:00,82.0,19.0,-100.00,South,177,19.0,24.0,9,-99.99,,,-99.99,,2013-06-10 19:42:00,
2013-06-10 14:02:00,83.0,18.0,-100.00,SSW,201,15.0,29.0,8,-99.99,,,-99.99,,2013-06-10 20:02:00,
2013-06-10 14:12:00,83.0,19.0,-100.00,SW,226,25.0,30.0,9,-99.99,,,-99.99,,2013-06-10 20:12:00,
2013-06-10 14:22:00,83.0,18.0,-100.00,SW,218,23.0,34.0,8,-99.99,,,-99.99,,2013-06-10 20:22:00,
2013-06-10 14:32:00,84.0,19.0,-100.00,SSW,206,19.0,28.0,8,-99.99,,,-99.99,,2013-06-10 20:32:00,
2013-06-10 14:42:00,83.0,19.0,-100.00,South,185,17.0,28.0,9,-99.99,,,-99.99,,2013-06-10 20:42:00,
2013-06-10 14:52:00,86.0,20.0,-100.00,SSW,207,18.0,28.0,8,-99.99,,,-99.99,,2013-06-10 20:52:00,
2013-06-10 15:02:00,83.0,16.0,-100.00,SSW,195,17.0,29.0,8,-99.99,,,-99.99,,2013-06-10 21:02:00,
2013-06-10 15:12:00,83.0,16.0,-100.00,SW,226,20.0,25.0,8,-99.99,,,-99.99,,2013-06-10 21:12:00,
2013-06-10 15:22:00,85.0,18.0,-100.00,SW,221,13.0,27.0,8,-99.99,,,-99.99,,2013-06-10 21:22:00,
2013-06-10 15:33:00,84.0,15.0,-100.00,WSW,238,16.0,27.0,7,-99.99,,,-99.99,,2013-06-10 21:33:00,
2013-06-10 15:42:00,85.0,17.0,-100.00,WSW,238,20.0,32.0,7,-99.99,,,-99.99,,2013-06-10 21:42:00,
2013-06-10 15:53:00,84.0,15.0,-100.00,WSW,242,21.0,27.0,7,-99.99,,,-99.99,,2013-06-10 21:53:00,
2013-06-10 16:02:00,85.0,15.0,-100.00,WSW,240,18.0,24.0,7,-99.99,,,-99.99,,2013-06-10 22:02:00,
2013-06-10 16:12:00,84.0,15.0,-100.00,SW,235,11.0,27.0,7,-99.99,,,-99.99,,2013-06-10 22:12:00,
2013-06-10 16:22:00,84.0,15.0,-100.00,SW,227,15.0,24.0,7,-99.99,,,-99.99,,2013-06-10 22:22:00,
2013-06-10 16:33:00,85.0,19.0,-100.00,WSW,245,21.0,24.0,8,-99.99,,,-99.99,,2013-06-10 22:33:00,
2013-06-10 16:42:00,85.0,15.0,-100.00,WSW,256,14.0,26.0,7,-99.99,,,-99.99,,2013-06-10 22:42:00,
2013-06-10 16:52:00,83.0,14.0,-100.00,SW,234,17.0,21.0,7,-99.99,,,-99.99,,2013-06-10 22:52:00,
2013-06-10 17:02:00,83.0,18.0,-100.00,WSW,248,20.0,29.0,8,-99.99,,,-99.99,,2013-06-10 23:02:00,
2013-06-10 17:12:00,82.0,20.0,-100.00,WSW,244,16.0,22.0,9,-99.99,,,-99.99,,2013-06-10 23:12:00,
2013-06-10 17:22:00,84.0,17.0,-100.00,WSW,252,17.0,25.0,8,-99.99,,,-99.99,,2013-06-10 23:22:00,
2013-06-10 17:32:00,84.0,17.0,-100.00,West,259,22.0,26.0,8,-99.99,,,-99.99,,2013-06-10 23:32:00,
2013-06-10 17:42:00,85.0,18.0,-100.00,WSW,241,22.0,24.0,8,-99.99,,,-99.99,,2013-06-10 23:42:00,
2013-06-10 17:52:00,84.0,14.0,-100.00,SW,234,23.0,29.0,7,-99.99,,,-99.99,,2013-06-10 23:52:00,
2013-06-10 18:02:00,84.0,15.0,-100.00,SW,227,15.0,26.0,7,-99.99,,,-99.99,,2013-06-11 00:02:00,
2013-06-10 18:12:00,84.0,16.0,-100.00,WSW,241,21.0,28.0,7,-99.99,,,-99.99,,2013-06-11 00:12:00,
2013-06-10 18:32:00,84.0,15.0,-100.00,WSW,240,23.0,27.0,7,-99.99,,,-99.99,,2013-06-11 00:32:00,
2013-06-10 18:42:00,84.0,15.0,-100.00,WSW,237,24.0,30.0,7,-99.99,,,-99.99,,2013-06-11 00:42:00,
2013-06-10 18:52:00,84.0,15.0,-100.00,WSW,237,24.0,30.0,7,-99.99,,,-99.99,,2013-06-11 00:52:00,
2013-06-10 19:02:00,83.0,18.0,-100.00,WSW,242,15.0,28.0,8,-99.99,,,-99.99,,2013-06-11 01:02:00,
2013-06-10 19:12:00,83.0,16.0,-100.00,SW,227,21.0,24.0,7,-99.99,,,-99.99,,2013-06-11 01:12:00,
2013-06-10 19:21:00,83.0,16.0,-100.00,SW,227,21.0,24.0,7,-99.99,,,-99.99,,2013-06-11 01:21:00,
2013-06-10 19:32:00,83.0,13.0,-100.00,SSW,210,13.0,24.0,7,-99.99,,,-99.99,,2013-06-11 01:32:00,
2013-06-10 19:42:00,82.0,12.0,-100.00,WSW,240,16.0,24.0,6,-99.99,,,-99.99,,2013-06-11 01:42:00,
2013-06-10 19:52:00,83.0,15.0,-100.00,WSW,256,8.0,15.0,7,-99.99,,,-99.99,,2013-06-11 01:52:00,
2013-06-10 20:02:00,82.0,11.0,-100.00,SW,231,10.0,19.0,6,-99.99,,,-99.99,,2013-06-11 02:02:00,
2013-06-10 20:12:00,81.0,8.0,-100.00,SW,218,20.0,27.0,6,-99.99,,,-99.99,,2013-06-11 02:12:00,
2013-06-10 20:32:00,81.0,9.0,-100.00,SW,232,13.0,18.0,6,-99.99,,,-99.99,,2013-06-11 02:32:00,
2013-06-10 20:42:00,80.0,15.0,-100.00,SW,229,9.0,20.0,8,-99.99,,,-99.99,,2013-06-11 02:42:00,
2013-06-10 20:52:00,77.0,13.0,-100.00,SSW,204,9.0,13.0,8,-99.99,,,-99.99,,2013-06-11 02:52:00,
2013-06-10 21:02:00,75.0,18.0,-100.00,WSW,246,9.0,25.0,11,-99.99,,,-99.99,,2013-06-11 03:02:00,
2013-06-10 21:12:00,70.0,16.0,-100.00,WSW,253,5.0,6.0,12,-99.99,,,-99.99,,2013-06-11 03:12:00,
2013-06-10 21:21:00,72.0,15.0,-100.00,SW,233,1.0,8.0,11,-99.99,,,-99.99,,2013-06-11 03:21:00,
2013-06-10 21:32:00,72.0,17.0,-100.00,West,281,1.0,3.0,12,-99.99,,,-99.99,,2013-06-11 03:32:00,
2013-06-10 21:42:00,72.0,15.0,-100.00,SSW,206,0.0,3.0,11,-99.99,,,-99.99,,2013-06-11 03:42:00,
2013-06-10 21:53:00,69.0,16.0,-100.00,East,101,5.0,6.0,12,-99.99,,,-99.99,,2013-06-11 03:53:00,
2013-06-10 22:02:00,68.0,15.0,-100.00,ESE,114,5.0,8.0,13,-99.99,,,-99.99,,2013-06-11 04:02:00,
2013-06-10 22:12:00,67.0,14.0,-100.00,ESE,118,5.0,8.0,12,-99.99,,,-99.99,,2013-06-11 04:12:00,
2013-06-10 22:22:00,65.0,15.0,-100.00,ESE,107,4.0,5.0,14,-99.99,,,-99.99,,2013-06-11 04:22:00,
2013-06-10 22:33:00,65.0,22.0,-100.00,SSE,150,2.0,5.0,19,-99.99,,,-99.99,,2013-06-11 04:33:00,
2013-06-10 22:42:00,61.0,20.0,-100.00,ENE,64,3.0,4.0,20,-99.99,,,-99.99,,2013-06-11 04:42:00,
2013-06-10 22:52:00,62.0,15.0,-100.00,East,86,5.0,7.0,16,-99.99,,,-99.99,,2013-06-11 04:52:00,
2013-06-10 23:02:00,62.0,15.0,-100.00,NE,36,2.0,6.0,15,-99.99,,,-99.99,,2013-06-11 05:02:00,
2013-06-10 23:12:00,63.0,16.0,-100.00,East,83,3.0,4.0,16,-99.99,,,-99.99,,2013-06-11 05:12:00,
2013-06-10 23:22:00,60.0,18.0,-100.00,NW,326,1.0,3.0,19,-99.99,,,-99.99,,2013-06-11 05:22:00,
2013-06-10 23:32:00,59.0,19.0,-100.00,ENE,75,1.0,2.0,21,-99.99,,,-99.99,,2013-06-11 05:32:00,
2013-06-10 23:42:00,60.0,16.0,-100.00,East,92,4.0,7.0,18,-99.99,,,-99.99,,2013-06-11 05:42:00,
2013-06-10 23:52:00,59.0,20.0,-100.00,ENE,72,6.0,7.0,21,-99.99,,,-99.99,,2013-06-11 05:52:00,